sensor_id;sensor_type;location;lat;lon;timestamp;pressure;altitude;pressure_sealevel;temperature;humidity
77165;BME280;66140;50.280;18.660;2023-05-07T04:02:27;99278.75;;;7.54;100.00
77165;BME280;66140;50.280;18.660;2023-05-07T04:04:52;99283.78;;;7.58;100.00
77165;BME280;66140;50.280;18.660;2023-05-07T04:07:18;99294.34;;;7.58;100.00
77165;BME280;66140;50.280;18.660;2023-05-07T04:09:43;99293.00;;;7.50;100.00
77165;BME280;66140;50.280;18.660;2023-05-07T04:12:08;99294.78;;;7.49;100.00
77165;BME280;66140;50.280;18.660;2023-05-07T04:14:34;99293.00;;;7.50;100.00
77165;BME280;66140;50.280;18.660;2023-05-07T04:16:59;99298.38;;;7.48;100.00
77165;BME280;66140;50.280;18.660;2023-05-07T04:19:25;99291.38;;;7.47;100.00
77165;BME280;66140;50.280;18.660;2023-05-07T04:21:50;99296.72;;;7.46;100.00
77165;BME280;66140;50.280;18.660;2023-05-07T04:24:15;99302.06;;;7.44;100.00
77165;BME280;66140;50.280;18.660;2023-05-07T04:26:41;99303.78;;;7.45;100.00
77165;BME280;66140;50.280;18.660;2023-05-07T04:29:06;99318.94;;;7.42;100.00
77165;BME280;66140;50.280;18.660;2023-05-07T04:31:32;99309.34;;;7.39;100.00
77165;BME280;66140;50.280;18.660;2023-05-07T04:33:57;99311.94;;;7.41;100.00
77165;BME280;66140;50.280;18.660;2023-05-07T04:36:43;99319.91;;;7.39;100.00
77165;BME280;66140;50.280;18.660;2023-05-07T04:39:14;99326.91;;;7.40;100.00
77165;BME280;66140;50.280;18.660;2023-05-07T04:41:40;99325.31;;;7.36;100.00
77165;BME280;66140;50.280;18.660;2023-05-07T04:44:05;99324.69;;;7.31;100.00
77165;BME280;66140;50.280;18.660;2023-05-07T04:46:31;99344.75;;;7.35;100.00
77165;BME280;66140;50.280;18.660;2023-05-07T04:48:57;99345.97;;;7.28;100.00
77165;BME280;66140;50.280;18.660;2023-05-07T04:51:22;99348.63;;;7.28;100.00
77165;BME280;66140;50.280;18.660;2023-05-07T04:53:48;99339.91;;;7.26;100.00
77165;BME280;66140;50.280;18.660;2023-05-07T04:56:14;99346.44;;;7.17;100.00
77165;BME280;66140;50.280;18.660;2023-05-07T04:58:39;99350.88;;;7.17;100.00
77165;BME280;66140;50.280;18.660;2023-05-07T05:01:04;99353.38;;;7.20;100.00
77165;BME280;66140;50.280;18.660;2023-05-07T05:03:30;99362.00;;;7.23;100.00
77165;BME280;66140;50.280;18.660;2023-05-07T05:06:03;99361.00;;;7.26;100.00
77165;BME280;66140;50.280;18.660;2023-05-07T05:08:29;99368.00;;;7.27;100.00
77165;BME280;66140;50.280;18.660;2023-05-07T05:10:57;99364.84;;;7.19;100.00
77165;BME280;66140;50.280;18.660;2023-05-07T05:13:23;99368.13;;;7.24;100.00
77165;BME280;66140;50.280;18.660;2023-05-07T05:15:48;99364.44;;;7.28;100.00
77165;BME280;66140;50.280;18.660;2023-05-07T05:18:14;99369.66;;;7.30;100.00
77165;BME280;66140;50.280;18.660;2023-05-07T05:20:40;99385.28;;;7.34;100.00
77165;BME280;66140;50.280;18.660;2023-05-07T05:23:07;99374.28;;;7.24;100.00
77165;BME280;66140;50.280;18.660;2023-05-07T05:25:33;99378.69;;;7.24;100.00
77165;BME280;66140;50.280;18.660;2023-05-07T05:27:58;99403.22;;;7.26;100.00
77165;BME280;66140;50.280;18.660;2023-05-07T05:30:23;99388.38;;;7.23;100.00
77165;BME280;66140;50.280;18.660;2023-05-07T05:32:49;99393.53;;;7.27;100.00
77165;BME280;66140;50.280;18.660;2023-05-07T05:35:14;99400.53;;;7.28;100.00
77165;BME280;66140;50.280;18.660;2023-05-07T05:37:39;99396.31;;;7.23;100.00
77165;BME280;66140;50.280;18.660;2023-05-07T05:40:05;99408.56;;;7.24;100.00
77165;BME280;66140;50.280;18.660;2023-05-07T05:42:31;99406.09;;;7.21;100.00
77165;BME280;66140;50.280;18.660;2023-05-07T05:44:56;99406.94;;;7.22;100.00
77165;BME280;66140;50.280;18.660;2023-05-07T05:47:22;99412.22;;;7.22;100.00
77165;BME280;66140;50.280;18.660;2023-05-07T05:49:47;99413.94;;;7.23;100.00
77165;BME280;66140;50.280;18.660;2023-05-07T05:52:13;99422.19;;;7.15;100.00
77165;BME280;66140;50.280;18.660;2023-05-07T05:54:39;99420.81;;;7.07;100.00
77165;BME280;66140;50.280;18.660;2023-05-07T05:57:04;99424.53;;;7.03;100.00
77165;BME280;66140;50.280;18.660;2023-05-07T05:59:33;99428.31;;;6.97;100.00
77165;BME280;66140;50.280;18.660;2023-05-07T06:01:59;99430.94;;;6.97;100.00
77165;BME280;66140;50.280;18.660;2023-05-07T06:04:24;99428.47;;;6.93;100.00
77165;BME280;66140;50.280;18.660;2023-05-07T06:06:50;99426.91;;;6.89;100.00
77165;BME280;66140;50.280;18.660;2023-05-07T06:09:15;99438.78;;;6.78;100.00
77165;BME280;66140;50.280;18.660;2023-05-07T06:11:40;99436.94;;;6.80;100.00
77165;BME280;66140;50.280;18.660;2023-05-07T06:14:06;99427.72;;;6.70;100.00
77165;BME280;66140;50.280;18.660;2023-05-07T06:16:31;99434.81;;;6.68;100.00
77165;BME280;66140;50.280;18.660;2023-05-07T06:18:57;99439.19;;;6.69;100.00
77165;BME280;66140;50.280;18.660;2023-05-07T06:21:22;99440.75;;;6.73;100.00
77165;BME280;66140;50.280;18.660;2023-05-07T06:23:48;99438.38;;;6.67;100.00
77165;BME280;66140;50.280;18.660;2023-05-07T06:26:13;99435.88;;;6.64;100.00
77165;BME280;66140;50.280;18.660;2023-05-07T06:28:38;99439.13;;;6.71;100.00
77165;BME280;66140;50.280;18.660;2023-05-07T06:31:18;99446.72;;;6.78;100.00
77165;BME280;66140;50.280;18.660;2023-05-07T06:33:45;99451.44;;;6.70;100.00
77165;BME280;66140;50.280;18.660;2023-05-07T06:36:11;99452.94;;;6.56;100.00
77165;BME280;66140;50.280;18.660;2023-05-07T06:38:36;99456.69;;;6.50;100.00
77165;BME280;66140;50.280;18.660;2023-05-07T06:41:01;99455.03;;;6.48;100.00
77165;BME280;66140;50.280;18.660;2023-05-07T06:43:27;99468.03;;;6.52;100.00
77165;BME280;66140;50.280;18.660;2023-05-07T06:45:52;99463.03;;;6.46;100.00
77165;BME280;66140;50.280;18.660;2023-05-07T06:48:17;99463.84;;;6.47;100.00
77165;BME280;66140;50.280;18.660;2023-05-07T06:50:43;99468.75;;;6.56;100.00
77165;BME280;66140;50.280;18.660;2023-05-07T06:53:08;99463.09;;;6.44;100.00
77165;BME280;66140;50.280;18.660;2023-05-07T06:55:36;99469.06;;;6.48;100.00
77165;BME280;66140;50.280;18.660;2023-05-07T06:58:03;99474.19;;;6.53;100.00
77165;BME280;66140;50.280;18.660;2023-05-07T07:00:28;99467.91;;;6.55;100.00
77165;BME280;66140;50.280;18.660;2023-05-07T07:02:55;99478.19;;;6.61;100.00
77165;BME280;66140;50.280;18.660;2023-05-07T07:05:20;99474.22;;;6.51;100.00
77165;BME280;66140;50.280;18.660;2023-05-07T07:07:46;99481.06;;;6.55;100.00
77165;BME280;66140;50.280;18.660;2023-05-07T07:10:21;99475.94;;;6.52;100.00
77165;BME280;66140;50.280;18.660;2023-05-07T07:12:46;99475.53;;;6.61;100.00
77165;BME280;66140;50.280;18.660;2023-05-07T07:15:13;99485.66;;;6.72;100.00
77165;BME280;66140;50.280;18.660;2023-05-07T07:17:38;99482.16;;;6.71;100.00
77165;BME280;66140;50.280;18.660;2023-05-07T07:20:04;99481.66;;;6.83;100.00
77165;BME280;66140;50.280;18.660;2023-05-07T07:22:33;99488.69;;;6.83;100.00
77165;BME280;66140;50.280;18.660;2023-05-07T07:24:58;99492.19;;;6.83;100.00
77165;BME280;66140;50.280;18.660;2023-05-07T07:27:23;99488.75;;;6.81;100.00
77165;BME280;66140;50.280;18.660;2023-05-07T07:29:49;99499.44;;;6.78;100.00
77165;BME280;66140;50.280;18.660;2023-05-07T07:32:14;99504.06;;;6.94;100.00
77165;BME280;66140;50.280;18.660;2023-05-07T07:34:40;99506.31;;;7.03;100.00
77165;BME280;66140;50.280;18.660;2023-05-07T07:37:05;99500.88;;;7.06;100.00
77165;BME280;66140;50.280;18.660;2023-05-07T07:39:34;99505.91;;;7.12;100.00
77165;BME280;66140;50.280;18.660;2023-05-07T07:42:00;99493.72;;;7.09;100.00
77165;BME280;66140;50.280;18.660;2023-05-07T07:44:26;99502.63;;;7.07;100.00
77165;BME280;66140;50.280;18.660;2023-05-07T07:46:52;99512.72;;;6.97;100.00
77165;BME280;66140;50.280;18.660;2023-05-07T07:49:17;99500.50;;;6.95;100.00
77165;BME280;66140;50.280;18.660;2023-05-07T07:51:43;99512.44;;;7.03;100.00
77165;BME280;66140;50.280;18.660;2023-05-07T07:54:08;99511.06;;;7.15;100.00
77165;BME280;66140;50.280;18.660;2023-05-07T07:56:34;99523.78;;;7.25;100.00
77165;BME280;66140;50.280;18.660;2023-05-07T07:58:59;99514.22;;;7.23;100.00
77165;BME280;66140;50.280;18.660;2023-05-07T08:01:25;99525.56;;;7.25;100.00
77165;BME280;66140;50.280;18.660;2023-05-07T08:03:51;99526.34;;;7.27;100.00
77165;BME280;66140;50.280;18.660;2023-05-07T08:06:16;99526.63;;;7.21;99.60
77165;BME280;66140;50.280;18.660;2023-05-07T08:08:42;99518.81;;;7.18;99.68
77165;BME280;66140;50.280;18.660;2023-05-07T08:11:07;99511.66;;;7.21;99.83
77165;BME280;66140;50.280;18.660;2023-05-07T08:13:32;99518.06;;;7.16;98.98
77165;BME280;66140;50.280;18.660;2023-05-07T08:15:58;99531.22;;;7.36;98.93
77165;BME280;66140;50.280;18.660;2023-05-07T08:18:24;99528.72;;;7.53;99.56
77165;BME280;66140;50.280;18.660;2023-05-07T08:20:50;99520.34;;;7.62;97.45
77165;BME280;66140;50.280;18.660;2023-05-07T08:23:15;99531.72;;;7.64;97.93
77165;BME280;66140;50.280;18.660;2023-05-07T08:25:40;99534.13;;;7.50;98.27
77165;BME280;66140;50.280;18.660;2023-05-07T08:28:07;99528.72;;;7.53;99.22
77165;BME280;66140;50.280;18.660;2023-05-07T08:30:34;99532.00;;;7.58;97.97
77165;BME280;66140;50.280;18.660;2023-05-07T08:33:00;99538.56;;;7.69;98.59
77165;BME280;66140;50.280;18.660;2023-05-07T08:35:25;99531.66;;;7.66;97.16
77165;BME280;66140;50.280;18.660;2023-05-07T08:37:52;99544.28;;;7.59;97.20
77165;BME280;66140;50.280;18.660;2023-05-07T08:40:18;99544.44;;;7.75;97.76
77165;BME280;66140;50.280;18.660;2023-05-07T08:42:44;99545.75;;;7.85;96.38
77165;BME280;66140;50.280;18.660;2023-05-07T08:45:10;99557.94;;;7.88;96.27
77165;BME280;66140;50.280;18.660;2023-05-07T08:47:43;99552.03;;;8.01;95.50
77165;BME280;66140;50.280;18.660;2023-05-07T08:50:10;99547.03;;;7.95;94.52
77165;BME280;66140;50.280;18.660;2023-05-07T08:52:36;99561.16;;;7.94;94.90
77165;BME280;66140;50.280;18.660;2023-05-07T08:55:03;99567.03;;;8.01;95.93
77165;BME280;66140;50.280;18.660;2023-05-07T08:57:28;99569.31;;;7.90;95.21
77165;BME280;66140;50.280;18.660;2023-05-07T08:59:53;99560.75;;;7.85;95.67
77165;BME280;66140;50.280;18.660;2023-05-07T09:02:19;99575.66;;;7.86;94.31
77165;BME280;66140;50.280;18.660;2023-05-07T09:04:48;99570.13;;;7.72;94.00
77165;BME280;66140;50.280;18.660;2023-05-07T09:07:13;99571.59;;;7.79;95.58
77165;BME280;66140;50.280;18.660;2023-05-07T09:09:38;99577.66;;;7.81;95.78
77165;BME280;66140;50.280;18.660;2023-05-07T09:12:04;99578.88;;;7.92;93.78
77165;BME280;66140;50.280;18.660;2023-05-07T09:14:30;99571.66;;;7.96;94.22
77165;BME280;66140;50.280;18.660;2023-05-07T09:16:56;99570.44;;;7.84;94.77
77165;BME280;66140;50.280;18.660;2023-05-07T09:19:23;99573.03;;;7.86;95.23
77165;BME280;66140;50.280;18.660;2023-05-07T09:21:49;99569.19;;;7.93;94.20
77165;BME280;66140;50.280;18.660;2023-05-07T09:24:15;99581.31;;;7.97;93.28
77165;BME280;66140;50.280;18.660;2023-05-07T09:26:41;99590.41;;;8.10;92.84
77165;BME280;66140;50.280;18.660;2023-05-07T09:29:07;99590.75;;;8.02;91.38
77165;BME280;66140;50.280;18.660;2023-05-07T09:31:36;99592.16;;;7.91;92.42
77165;BME280;66140;50.280;18.660;2023-05-07T09:34:04;99586.06;;;7.89;91.46
77165;BME280;66140;50.280;18.660;2023-05-07T09:36:31;99579.75;;;7.93;91.91
77165;BME280;66140;50.280;18.660;2023-05-07T09:38:59;99578.03;;;7.92;91.85
77165;BME280;66140;50.280;18.660;2023-05-07T09:41:26;99581.44;;;7.94;91.83
77165;BME280;66140;50.280;18.660;2023-05-07T09:43:54;99583.03;;;7.98;92.60
77165;BME280;66140;50.280;18.660;2023-05-07T09:46:30;99600.88;;;7.93;92.72
77165;BME280;66140;50.280;18.660;2023-05-07T09:49:01;99602.84;;;7.88;93.33
77165;BME280;66140;50.280;18.660;2023-05-07T09:54:02;99605.75;;;8.02;94.16
77165;BME280;66140;50.280;18.660;2023-05-07T09:56:29;99603.16;;;8.00;92.25
77165;BME280;66140;50.280;18.660;2023-05-07T09:58:58;99607.47;;;8.03;93.02
77165;BME280;66140;50.280;18.660;2023-05-07T10:01:25;99605.03;;;7.98;92.79
77165;BME280;66140;50.280;18.660;2023-05-07T10:03:52;99609.47;;;7.98;92.22
77165;BME280;66140;50.280;18.660;2023-05-07T10:06:19;99596.25;;;7.98;91.71
77165;BME280;66140;50.280;18.660;2023-05-07T10:08:45;99605.00;;;7.80;91.30
77165;BME280;66140;50.280;18.660;2023-05-07T10:11:11;99620.69;;;7.83;91.44
77165;BME280;66140;50.280;18.660;2023-05-07T10:13:37;99618.84;;;7.85;90.50
77165;BME280;66140;50.280;18.660;2023-05-07T10:16:06;99611.31;;;7.96;91.15
77165;BME280;66140;50.280;18.660;2023-05-07T10:18:32;99616.03;;;8.08;91.02
77165;BME280;66140;50.280;18.660;2023-05-07T10:21:27;99625.75;;;8.26;90.32
77165;BME280;66140;50.280;18.660;2023-05-07T10:24:00;99629.88;;;8.13;89.73
77165;BME280;66140;50.280;18.660;2023-05-07T10:26:31;99635.44;;;8.07;90.79
77165;BME280;66140;50.280;18.660;2023-05-07T10:29:02;99626.88;;;8.02;90.97
77165;BME280;66140;50.280;18.660;2023-05-07T10:31:50;99644.44;;;8.03;90.90
77165;BME280;66140;50.280;18.660;2023-05-07T10:34:22;99636.00;;;7.95;91.05
77165;BME280;66140;50.280;18.660;2023-05-07T10:36:50;99646.72;;;7.92;91.59
77165;BME280;66140;50.280;18.660;2023-05-07T10:39:16;99647.66;;;7.71;92.28
77165;BME280;66140;50.280;18.660;2023-05-07T10:41:42;99654.13;;;7.63;93.72
77165;BME280;66140;50.280;18.660;2023-05-07T10:44:07;99647.59;;;7.72;93.57
77165;BME280;66140;50.280;18.660;2023-05-07T10:46:33;99630.25;;;7.67;93.89
77165;BME280;66140;50.280;18.660;2023-05-07T10:51:26;99645.34;;;7.63;93.72
77165;BME280;66140;50.280;18.660;2023-05-07T10:56:45;99654.38;;;7.57;94.36
77165;BME280;66140;50.280;18.660;2023-05-07T11:04:25;99659.00;;;7.52;92.69
77165;BME280;66140;50.280;18.660;2023-05-07T11:15:03;99659.28;;;7.87;92.95
77165;BME280;66140;50.280;18.660;2023-05-07T11:17:31;99650.28;;;7.91;91.97
77165;BME280;66140;50.280;18.660;2023-05-07T11:20:00;99663.63;;;7.88;91.06
77165;BME280;66140;50.280;18.660;2023-05-07T11:25:05;99667.53;;;7.79;91.67
77165;BME280;66140;50.280;18.660;2023-05-07T11:27:41;99657.03;;;7.78;92.23
77165;BME280;66140;50.280;18.660;2023-05-07T11:30:07;99662.56;;;7.92;91.26
77165;BME280;66140;50.280;18.660;2023-05-07T11:32:32;99673.69;;;8.00;92.08
77165;BME280;66140;50.280;18.660;2023-05-07T11:34:59;99672.06;;;8.16;91.46
77165;BME280;66140;50.280;18.660;2023-05-07T11:37:26;99668.88;;;8.08;90.19
77165;BME280;66140;50.280;18.660;2023-05-07T11:40:05;99681.97;;;8.11;90.78
77165;BME280;66140;50.280;18.660;2023-05-07T11:42:36;99680.91;;;7.95;90.88
77165;BME280;66140;50.280;18.660;2023-05-07T11:45:06;99683.50;;;7.76;91.24
77165;BME280;66140;50.280;18.660;2023-05-07T11:47:33;99683.06;;;7.67;91.13
77165;BME280;66140;50.280;18.660;2023-05-07T11:50:04;99680.47;;;7.65;91.87
77165;BME280;66140;50.280;18.660;2023-05-07T11:52:31;99676.16;;;7.62;92.97
77165;BME280;66140;50.280;18.660;2023-05-07T11:54:58;99686.63;;;7.65;92.79
77165;BME280;66140;50.280;18.660;2023-05-07T11:57:37;99681.84;;;7.53;92.44
77165;BME280;66140;50.280;18.660;2023-05-07T12:00:02;99687.00;;;7.56;92.87
77165;BME280;66140;50.280;18.660;2023-05-07T12:02:29;99685.03;;;7.61;93.11
77165;BME280;66140;50.280;18.660;2023-05-07T12:04:56;99702.91;;;7.75;92.88
77165;BME280;66140;50.280;18.660;2023-05-07T12:07:23;99696.72;;;7.76;92.35
77165;BME280;66140;50.280;18.660;2023-05-07T12:09:49;99702.81;;;7.78;92.22
77165;BME280;66140;50.280;18.660;2023-05-07T12:12:15;99700.22;;;7.77;91.94
77165;BME280;66140;50.280;18.660;2023-05-07T12:14:43;99707.47;;;7.72;92.24
77165;BME280;66140;50.280;18.660;2023-05-07T12:17:09;99699.56;;;7.72;91.75
77165;BME280;66140;50.280;18.660;2023-05-07T12:19:36;99706.03;;;7.64;91.86
77165;BME280;66140;50.280;18.660;2023-05-07T12:22:03;99706.16;;;7.61;92.29
77165;BME280;66140;50.280;18.660;2023-05-07T12:24:30;99716.72;;;7.61;92.44
77165;BME280;66140;50.280;18.660;2023-05-07T12:27:06;99704.25;;;7.65;92.67
77165;BME280;66140;50.280;18.660;2023-05-07T12:29:31;99697.44;;;7.59;91.71
77165;BME280;66140;50.280;18.660;2023-05-07T12:31:58;99704.56;;;7.57;91.81
77165;BME280;66140;50.280;18.660;2023-05-07T12:34:23;99715.72;;;7.64;92.44
77165;BME280;66140;50.280;18.660;2023-05-07T12:36:49;99716.59;;;7.64;92.48
77165;BME280;66140;50.280;18.660;2023-05-07T12:39:15;99716.91;;;7.57;92.97
77165;BME280;66140;50.280;18.660;2023-05-07T12:41:57;99700.63;;;7.68;92.16
77165;BME280;66140;50.280;18.660;2023-05-07T12:44:33;99716.22;;;7.74;91.22
77165;BME280;66140;50.280;18.660;2023-05-07T12:47:02;99716.47;;;7.88;91.10
77165;BME280;66140;50.280;18.660;2023-05-07T12:49:28;99719.84;;;7.91;90.72
77165;BME280;66140;50.280;18.660;2023-05-07T12:51:53;99712.63;;;7.95;89.33
77165;BME280;66140;50.280;18.660;2023-05-07T12:54:32;99712.34;;;8.01;89.80
77165;BME280;66140;50.280;18.660;2023-05-07T12:57:06;99721.63;;;8.11;88.05
77165;BME280;66140;50.280;18.660;2023-05-07T12:59:33;99715.47;;;8.11;88.65
77165;BME280;66140;50.280;18.660;2023-05-07T13:01:59;99725.50;;;8.23;88.71
77165;BME280;66140;50.280;18.660;2023-05-07T13:04:25;99730.31;;;8.13;88.67
77165;BME280;66140;50.280;18.660;2023-05-07T13:06:50;99721.56;;;7.92;89.14
77165;BME280;66140;50.280;18.660;2023-05-07T13:09:16;99720.81;;;7.89;89.77
77165;BME280;66140;50.280;18.660;2023-05-07T13:11:41;99707.75;;;7.86;89.45
77165;BME280;66140;50.280;18.660;2023-05-07T13:14:07;99729.56;;;7.91;89.44
77165;BME280;66140;50.280;18.660;2023-05-07T13:16:33;99726.84;;;7.92;89.37
77165;BME280;66140;50.280;18.660;2023-05-07T13:18:58;99709.59;;;7.84;88.99
77165;BME280;66140;50.280;18.660;2023-05-07T13:21:26;99714.03;;;7.83;88.83
77165;BME280;66140;50.280;18.660;2023-05-07T13:23:52;99716.34;;;7.91;88.45
77165;BME280;66140;50.280;18.660;2023-05-07T13:26:18;99732.63;;;8.00;87.66
77165;BME280;66140;50.280;18.660;2023-05-07T13:28:43;99724.38;;;8.08;88.29
77165;BME280;66140;50.280;18.660;2023-05-07T13:31:09;99707.22;;;8.18;88.27
77165;BME280;66140;50.280;18.660;2023-05-07T13:33:34;99708.41;;;8.31;88.18
77165;BME280;66140;50.280;18.660;2023-05-07T13:36:00;99715.00;;;8.41;87.03
77165;BME280;66140;50.280;18.660;2023-05-07T13:38:26;99723.28;;;8.53;86.66
77165;BME280;66140;50.280;18.660;2023-05-07T13:40:52;99715.28;;;8.35;85.21
77165;BME280;66140;50.280;18.660;2023-05-07T13:43:18;99712.94;;;8.28;86.59
77165;BME280;66140;50.280;18.660;2023-05-07T13:45:44;99722.28;;;8.36;86.28
77165;BME280;66140;50.280;18.660;2023-05-07T13:48:10;99708.78;;;8.22;86.58
77165;BME280;66140;50.280;18.660;2023-05-07T13:50:35;99717.28;;;8.30;86.62
77165;BME280;66140;50.280;18.660;2023-05-07T13:53:01;99713.94;;;8.25;86.40
77165;BME280;66140;50.280;18.660;2023-05-07T13:55:28;99721.72;;;8.28;86.39
77165;BME280;66140;50.280;18.660;2023-05-07T13:58:04;99717.78;;;8.18;86.29
77165;BME280;66140;50.280;18.660;2023-05-07T14:00:29;99725.13;;;8.12;86.26
77165;BME280;66140;50.280;18.660;2023-05-07T14:02:56;99720.16;;;8.04;86.33
77165;BME280;66140;50.280;18.660;2023-05-07T14:05:21;99724.38;;;8.08;87.23
77165;BME280;66140;50.280;18.660;2023-05-07T14:07:49;99725.91;;;8.14;87.00
77165;BME280;66140;50.280;18.660;2023-05-07T14:10:17;99733.50;;;8.21;86.59
77165;BME280;66140;50.280;18.660;2023-05-07T14:12:43;99725.03;;;8.13;86.73
77165;BME280;66140;50.280;18.660;2023-05-07T14:15:09;99732.13;;;8.13;87.07
77165;BME280;66140;50.280;18.660;2023-05-07T14:17:34;99736.28;;;8.18;87.28
77165;BME280;66140;50.280;18.660;2023-05-07T14:20:01;99730.16;;;8.18;86.93
77165;BME280;66140;50.280;18.660;2023-05-07T14:22:27;99726.75;;;8.14;86.19
77165;BME280;66140;50.280;18.660;2023-05-07T14:24:52;99730.84;;;8.21;86.59
77165;BME280;66140;50.280;18.660;2023-05-07T14:27:17;99727.44;;;8.19;87.07
77165;BME280;66140;50.280;18.660;2023-05-07T14:29:43;99741.94;;;8.31;86.64
77165;BME280;66140;50.280;18.660;2023-05-07T14:32:10;99734.28;;;8.23;86.20
77165;BME280;66140;50.280;18.660;2023-05-07T14:34:36;99733.22;;;8.27;86.57
77165;BME280;66140;50.280;18.660;2023-05-07T14:37:01;99753.38;;;8.31;86.32
77165;BME280;66140;50.280;18.660;2023-05-07T14:39:27;99745.78;;;8.22;86.74
77165;BME280;66140;50.280;18.660;2023-05-07T14:41:52;99748.44;;;8.02;88.37
77165;BME280;66140;50.280;18.660;2023-05-07T14:44:20;99750.69;;;7.91;88.92
77165;BME280;66140;50.280;18.660;2023-05-07T14:47:05;99753.53;;;7.86;89.35
77165;BME280;66140;50.280;18.660;2023-05-07T14:49:31;99776.31;;;7.89;89.94
77165;BME280;66140;50.280;18.660;2023-05-07T14:51:59;99775.78;;;7.81;89.21
77165;BME280;66140;50.280;18.660;2023-05-07T14:54:28;99777.88;;;7.73;88.64
77165;BME280;66140;50.280;18.660;2023-05-07T14:56:53;99769.47;;;7.63;89.73
77165;BME280;66140;50.280;18.660;2023-05-07T14:59:19;99756.56;;;7.55;89.69
77165;BME280;66140;50.280;18.660;2023-05-07T15:01:47;99770.31;;;7.63;90.00
77165;BME280;66140;50.280;18.660;2023-05-07T15:04:12;99770.47;;;7.60;89.41
77165;BME280;66140;50.280;18.660;2023-05-07T15:06:38;99772.97;;;7.63;89.04
77165;BME280;66140;50.280;18.660;2023-05-07T15:09:04;99778.00;;;7.70;88.77
77165;BME280;66140;50.280;18.660;2023-05-07T15:11:29;99770.31;;;7.63;88.34
77165;BME280;66140;50.280;18.660;2023-05-07T15:13:55;99780.59;;;7.71;89.34
77165;BME280;66140;50.280;18.660;2023-05-07T15:16:20;99778.81;;;7.72;88.09
77165;BME280;66140;50.280;18.660;2023-05-07T15:18:46;99769.81;;;7.76;88.52
77165;BME280;66140;50.280;18.660;2023-05-07T15:21:14;99762.94;;;7.72;88.48
77165;BME280;66140;50.280;18.660;2023-05-07T15:23:39;99773.31;;;7.76;88.28
77165;BME280;66140;50.280;18.660;2023-05-07T15:26:06;99777.69;;;7.77;88.33
77165;BME280;66140;50.280;18.660;2023-05-07T15:28:32;99777.47;;;7.82;88.00
77165;BME280;66140;50.280;18.660;2023-05-07T15:30:58;99776.34;;;7.87;87.60
77165;BME280;66140;50.280;18.660;2023-05-07T15:33:23;99787.69;;;7.91;87.59
77165;BME280;66140;50.280;18.660;2023-05-07T15:35:49;99794.53;;;7.95;88.23
77165;BME280;66140;50.280;18.660;2023-05-07T15:38:15;99780.66;;;7.90;87.96
77165;BME280;66140;50.280;18.660;2023-05-07T15:40:40;99787.78;;;7.88;89.23
77165;BME280;66140;50.280;18.660;2023-05-07T15:43:10;99797.03;;;7.78;88.71
77165;BME280;66140;50.280;18.660;2023-05-07T15:45:40;99802.03;;;7.63;90.01
77165;BME280;66140;50.280;18.660;2023-05-07T15:48:09;99786.88;;;7.47;90.99
77165;BME280;66140;50.280;18.660;2023-05-07T15:50:35;99793.56;;;7.34;90.29
77165;BME280;66140;50.280;18.660;2023-05-07T15:53:01;99814.06;;;7.27;91.43
77165;BME280;66140;50.280;18.660;2023-05-07T15:55:26;99809.88;;;7.21;91.55
77165;BME280;66140;50.280;18.660;2023-05-07T15:57:52;99799.31;;;7.21;91.10
77165;BME280;66140;50.280;18.660;2023-05-07T16:00:19;99805.88;;;7.33;91.63
77165;BME280;66140;50.280;18.660;2023-05-07T16:02:45;99799.94;;;7.28;90.96
77165;BME280;66140;50.280;18.660;2023-05-07T16:05:10;99803.44;;;7.29;90.65
77165;BME280;66140;50.280;18.660;2023-05-07T16:07:37;99807.84;;;7.28;90.88
77165;BME280;66140;50.280;18.660;2023-05-07T16:10:03;99809.19;;;7.38;90.72
77165;BME280;66140;50.280;18.660;2023-05-07T16:12:29;99818.84;;;7.39;90.94
77165;BME280;66140;50.280;18.660;2023-05-07T16:14:54;99816.69;;;7.27;90.78
